CEJ2 weather

CLOSED Andrew Airport
Andrew, Alberta, Canada

Public forecast

Using degrees Celsius for public forecast. Weather courtesy of forecast.io.

Closest aviation weather report (METAR) to Andrew Airport

Closest report is Edmonton (CFB Namao) Heliport, 41.2 nm (76.3 km) WSW. Retrieved 2020/02/17 00:00 UTC (26 minutes ago):

CYED 170000Z AUTO 34005KT 9SM FEW091 M13/M15 A2985 RMK SLP157

Closest aviation forecast (TAF) to Andrew Airport

Forecast is more than 12 hours old.

Closest forecast is Edmonton (CFB Namao) Heliport, 41.2 nm (76.3 km) WSW. Retrieved 2020-02-15 00:33 UTC (2 days ago):

TAF TAF CYED 142330Z 1500/1512 VRB03KT P6SM SCT020 BKN080 RMK FCST BASED ON AUTO OBS NXT FCST BY 150600Z